KABI/ABI METAR and TAF weather

Enter ICAO airport designator
Station Type Date Time Source
KABI METAR 2019/09/21 20:52 UTC NOAA

KABI 212052Z 17015G21KT 10SM OVC070 33/15 A2996 RMK AO2 PK WND 17030/2034 SLP116 T03280150 56025 $


Station Type Date Time Source
KABI Decoded METAR 2019/09/21 20:52 UTC NOAA

ABILENE REGIONAL AIRPORT, TX, United States (KABI) 32-25N 099-41W 548M
Sep 21, 2019 - 04:52 PM EDT / 2019.09.21 2052 UTC
Wind: from the S (170 degrees) at 17 MPH (15 KT) gusting to 24 MPH (21 KT):0
Visibility: 10 mile(s):0
Sky conditions: overcast
Temperature: 91.0 F (32.8 C)
Dew Point: 59.0 F (15.0 C)
Relative Humidity: 34%
Pressure (altimeter): 29.96 in. Hg (1014 hPa)
Pressure tendency: 0.07 inches (2.5 hPa) lower than three hours ago
ob: KABI 212052Z 17015G21KT 10SM OVC070 33/15 A2996 RMK AO2 PK WND 17030/2034 SLP116 T03280150 56025
cycle: 21

Station Type Date Time Source
KABI TAF 2019/09/21 18:45 UTC NOAA

TAF KABI 211743Z 2118/2218 17018G25KT P6SM BKN050
FM220100 16010KT P6SM BKN100
FM221200 17013G19KT P6SM SCT025

Example: see airport list